Time;durP1;ratioP1;P1;durP2;ratioP2;P2;SDS_P1;SDS_P2;PMS_P1;PMS_P2;Temp;Humidity;BMP_temperature;BMP_pressure;BME280_temperature;BME280_humidity;BME280_pressure;Samples;Min_cycle;Max_cycle;Signal;HPM_P1;HPM_P2
2021/09/16 00:01:21;;;;;;;;;12.75;9.50;;;;;18.75;79.98;101364.94;4992849;28;45344;-71
2021/09/16 00:03:46;;;;;;;;;14.00;12.00;;;;;18.72;80.31;101364.28;4995778;28;45551;-71
2021/09/16 00:06:12;;;;;;;;;12.25;10.75;;;;;18.72;80.07;101369.63;4994405;28;45562;-71
2021/09/16 00:08:37;;;;;;;;;15.00;12.00;;;;;18.70;79.96;101371.53;4986734;28;45427;-71
2021/09/16 00:11:03;;;;;;;;;11.75;11.75;;;;;18.69;80.13;101380.50;4992499;28;45411;-71
2021/09/16 00:13:29;;;;;;;;;11.00;10.50;;;;;18.71;80.48;101390.06;4992094;28;45564;-71
2021/09/16 00:15:54;;;;;;;;;12.00;11.00;;;;;18.68;80.92;101386.75;4994705;28;45451;-71
2021/09/16 00:18:21;;;;;;;;;12.75;10.00;;;;;18.64;81.09;101385.25;4994801;28;45405;-71
2021/09/16 00:20:47;;;;;;;;;13.75;10.25;;;;;18.59;81.07;101379.38;4990481;28;45407;-71
2021/09/16 00:23:12;;;;;;;;;12.25;9.00;;;;;18.56;80.90;101376.88;4981867;28;45490;-71
2021/09/16 00:25:38;;;;;;;;;13.75;11.75;;;;;18.54;81.33;101381.47;4985393;28;45575;-71
2021/09/16 00:28:03;;;;;;;;;14.50;13.25;;;;;18.49;81.09;101382.63;4992730;28;45445;-71
2021/09/16 00:30:28;;;;;;;;;10.00;10.00;;;;;18.45;81.43;101378.44;4995919;28;45561;-71
2021/09/16 00:32:54;;;;;;;;;12.50;11.00;;;;;18.44;81.38;101383.88;4991347;28;45376;-71
2021/09/16 00:35:19;;;;;;;;;9.75;9.75;;;;;18.39;81.43;101383.34;4991976;28;45421;-72
2021/09/16 00:37:45;;;;;;;;;11.00;11.00;;;;;18.34;81.23;101385.44;4992408;28;45455;-72
2021/09/16 00:40:11;;;;;;;;;14.00;10.50;;;;;18.33;81.56;101395.22;4991599;28;45578;-71
2021/09/16 00:42:36;;;;;;;;;13.00;12.00;;;;;18.29;81.67;101400.84;4994680;28;45507;-71
2021/09/16 00:45:02;;;;;;;;;16.25;14.00;;;;;18.27;81.32;101403.63;4987337;28;46557;-71
2021/09/16 00:47:27;;;;;;;;;12.50;11.25;;;;;18.24;81.63;101412.63;4991867;28;45388;-71
2021/09/16 00:49:52;;;;;;;;;9.50;9.50;;;;;18.20;81.33;101408.44;4992131;28;45445;-71
2021/09/16 00:52:19;;;;;;;;;14.75;13.00;;;;;18.18;82.00;101398.88;4987917;28;45723;-71
2021/09/16 00:54:46;;;;;;;;;15.25;12.00;;;;;18.15;82.13;101396.41;4990560;28;46686;-72
2021/09/16 00:57:14;;;;;;;;;14.25;11.25;;;;;18.15;81.61;101401.72;4992742;28;45354;-72
2021/09/16 00:59:40;;;;;;;;;15.00;13.00;;;;;18.13;82.47;101396.50;4995187;28;45444;-72
2021/09/16 01:02:05;;;;;;;;;12.25;12.00;;;;;18.18;82.00;101399.72;4991869;28;45448;-72
2021/09/16 01:04:31;;;;;;;;;16.75;12.00;;;;;18.22;82.25;101397.75;4991155;28;45574;-72
2021/09/16 01:06:58;;;;;;;;;10.75;10.00;;;;;18.27;82.27;101398.28;4992165;28;45872;-72
2021/09/16 01:09:26;;;;;;;;;11.75;10.75;;;;;18.29;82.53;101398.19;4982032;28;45341;-72
2021/09/16 01:11:53;;;;;;;;;11.75;11.75;;;;;18.31;82.93;101401.59;4992082;28;45546;-72
2021/09/16 01:14:26;;;;;;;;;14.75;12.75;;;;;18.32;82.36;101403.28;4983712;28;45474;-71
2021/09/16 01:16:52;;;;;;;;;14.25;13.00;;;;;18.29;82.66;101409.69;4986057;28;45490;-71
2021/09/16 01:19:19;;;;;;;;;13.00;12.00;;;;;18.25;82.03;101403.69;4991799;28;45352;-71
2021/09/16 01:21:45;;;;;;;;;11.50;10.50;;;;;18.15;82.82;101394.59;4993938;28;45424;-71
2021/09/16 01:24:10;;;;;;;;;12.00;12.00;;;;;18.22;82.46;101411.03;4992855;28;46763;-71
2021/09/16 01:26:36;;;;;;;;;13.75;13.00;;;;;18.14;82.66;101403.53;4983678;28;45460;-71
2021/09/16 01:29:01;;;;;;;;;13.00;12.00;;;;;18.16;82.72;101420.25;4991111;28;45635;-72
2021/09/16 01:31:41;;;;;;;;;10.00;10.00;;;;;18.14;82.54;101415.97;4991591;28;45487;-72
2021/09/16 01:34:08;;;;;;;;;14.75;12.75;;;;;18.08;82.38;101411.91;4990396;28;46038;-72
2021/09/16 01:36:35;;;;;;;;;13.75;12.50;;;;;18.08;82.38;101419.03;4995590;28;45413;-71
2021/09/16 01:39:03;;;;;;;;;13.00;12.00;;;;;18.06;82.32;101415.59;4991910;28;45379;-71
2021/09/16 01:41:28;;;;;;;;;18.25;15.25;;;;;18.00;82.46;101412.38;4980291;28;47423;-71
2021/09/16 01:43:53;;;;;;;;;15.50;15.25;;;;;18.00;82.83;101420.34;4985727;28;46250;-72
2021/09/16 01:46:19;;;;;;;;;15.50;13.50;;;;;18.01;82.93;101423.91;4990644;28;45380;-72
2021/09/16 01:48:44;;;;;;;;;13.50;11.50;;;;;18.05;83.05;101432.53;4994560;28;45468;-71
2021/09/16 01:51:09;;;;;;;;;16.00;14.00;;;;;18.07;82.75;101433.28;4991227;28;45423;-72
2021/09/16 01:53:35;;;;;;;;;14.00;12.50;;;;;18.10;83.14;101425.97;4985923;28;58483;-71
2021/09/16 01:56:00;;;;;;;;;14.00;10.50;;;;;18.09;82.96;101423.41;4985962;28;46825;-71
2021/09/16 01:58:25;;;;;;;;;13.75;11.75;;;;;18.21;82.78;101435.91;4990969;28;45384;-71
2021/09/16 02:00:51;;;;;;;;;14.25;12.25;;;;;18.21;83.42;101428.78;4993269;28;45488;-71
2021/09/16 02:03:16;;;;;;;;;12.50;12.25;;;;;18.26;82.62;101432.00;4993034;28;46316;-71
2021/09/16 02:05:41;;;;;;;;;13.75;12.50;;;;;18.30;83.18;101434.47;4991390;28;45398;-71
2021/09/16 02:08:07;;;;;;;;;16.25;13.00;;;;;18.33;83.26;101435.16;4991094;28;45458;-71
2021/09/16 02:10:32;;;;;;;;;14.75;12.50;;;;;18.34;82.38;101436.00;4981477;28;45504;-71
2021/09/16 02:12:58;;;;;;;;;15.00;13.00;;;;;18.37;82.66;101441.97;4980010;28;46962;-71
2021/09/16 02:15:23;;;;;;;;;16.25;14.00;;;;;18.38;82.45;101445.50;4985760;28;45541;-71
2021/09/16 02:17:48;;;;;;;;;12.00;10.50;;;;;18.39;82.69;101452.53;4991141;28;45431;-71
2021/09/16 02:20:14;;;;;;;;;15.25;12.50;;;;;18.44;82.69;101455.75;4987802;28;52013;-71
2021/09/16 02:22:39;;;;;;;;;11.25;11.00;;;;;18.44;82.32;101451.28;4979673;28;46427;-71
2021/09/16 02:25:05;;;;;;;;;10.50;10.50;;;;;18.46;82.50;101449.34;4980358;28;45341;-71
2021/09/16 02:27:30;;;;;;;;;11.50;11.50;;;;;18.44;82.07;101451.28;4978653;28;45349;-71
2021/09/16 02:29:55;;;;;;;;;14.00;13.50;;;;;18.44;81.89;101445.09;4991346;28;45339;-71
2021/09/16 02:32:21;;;;;;;;;12.75;12.00;;;;;18.47;81.50;101456.38;4990355;28;46356;-71
2021/09/16 02:34:46;;;;;;;;;15.00;13.00;;;;;18.46;81.33;101456.50;4989926;28;46741;-71
2021/09/16 02:37:12;;;;;;;;;17.50;14.00;;;;;18.49;81.54;101453.63;4991344;28;45387;-71
2021/09/16 02:39:37;;;;;;;;;15.50;13.25;;;;;18.47;81.17;101453.72;4979301;28;45393;-71
2021/09/16 02:42:03;;;;;;;;;15.25;14.25;;;;;18.50;81.13;101453.53;4991065;28;45436;-71
2021/09/16 02:44:28;;;;;;;;;15.00;13.00;;;;;18.50;81.14;101450.88;4990316;28;45530;-71
2021/09/16 02:46:53;;;;;;;;;14.00;13.25;;;;;18.47;80.98;101443.06;4986638;28;45518;-71
2021/09/16 02:49:19;;;;;;;;;14.50;12.00;;;;;18.50;80.59;101448.22;4983400;28;50734;-70
2021/09/16 02:51:44;;;;;;;;;15.00;13.00;;;;;18.51;80.93;101455.22;4981119;28;46188;-71
2021/09/16 02:54:09;;;;;;;;;15.75;14.25;;;;;18.52;80.73;101454.28;4991086;28;45376;-71
2021/09/16 02:56:35;;;;;;;;;16.50;13.50;;;;;18.54;80.87;101453.34;4989506;28;45435;-71
2021/09/16 02:59:00;;;;;;;;;14.50;12.00;;;;;18.54;80.56;101458.66;4990322;28;45300;-71
2021/09/16 03:01:25;;;;;;;;;15.00;13.25;;;;;18.53;80.29;101463.09;4989727;28;47276;-71
2021/09/16 03:03:51;;;;;;;;;18.50;13.25;;;;;18.51;80.49;101460.56;4981519;28;45443;-71
2021/09/16 03:06:16;;;;;;;;;15.75;12.75;;;;;18.49;80.29;101464.28;4991850;28;45393;-71
2021/09/16 03:08:41;;;;;;;;;13.50;12.00;;;;;18.51;80.09;101465.88;4990192;28;45450;-71
2021/09/16 03:11:07;;;;;;;;;12.00;11.00;;;;;18.52;80.41;101470.25;4989992;28;46155;-71
2021/09/16 03:13:32;;;;;;;;;14.00;13.75;;;;;18.52;79.91;101472.91;4989617;28;45379;-71
2021/09/16 03:15:57;;;;;;;;;14.50;13.75;;;;;18.49;80.15;101467.81;4992471;28;45304;-71
2021/09/16 03:18:23;;;;;;;;;12.50;11.00;;;;;18.54;80.23;101479.97;4978220;28;45384;-72
2021/09/16 03:20:48;;;;;;;;;13.25;13.25;;;;;18.50;79.81;101474.81;4988767;28;45412;-71
2021/09/16 03:23:13;;;;;;;;;16.25;13.75;;;;;18.49;79.56;101472.28;4984750;28;45316;-71
2021/09/16 03:25:39;;;;;;;;;11.25;11.25;;;;;18.51;80.05;101473.88;4987108;28;49277;-71
2021/09/16 03:28:04;;;;;;;;;13.00;12.00;;;;;18.46;79.52;101467.97;4978561;28;45437;-71
2021/09/16 03:30:29;;;;;;;;;12.25;10.00;;;;;18.49;79.50;101474.94;4993496;28;45461;-71
2021/09/16 03:32:57;;;;;;;;;12.75;11.75;;;;;18.45;79.29;101471.59;4990419;28;45301;-71
2021/09/16 03:35:22;;;;;;;;;12.50;10.25;;;;;18.45;79.56;101471.59;4989428;28;45298;-71
2021/09/16 03:37:48;;;;;;;;;14.00;13.75;;;;;18.44;79.72;101471.72;4984230;28;45409;-71
2021/09/16 03:40:13;;;;;;;;;14.00;10.75;;;;;18.45;79.72;101476.94;4978990;28;45722;-71
2021/09/16 03:42:39;;;;;;;;;10.00;9.75;;;;;18.48;79.55;101484.72;4993873;28;45468;-71
2021/09/16 03:45:05;;;;;;;;;10.25;10.25;;;;;18.48;80.02;101478.56;4990978;28;45854;-71
2021/09/16 03:47:30;;;;;;;;;13.50;11.00;;;;;18.50;80.22;101482.81;4989506;28;45692;-71
2021/09/16 03:49:55;;;;;;;;;12.00;10.75;;;;;18.46;79.35;101478.63;4986671;28;45510;-71
2021/09/16 03:52:22;;;;;;;;;14.00;12.00;;;;;18.48;79.24;101473.22;4980074;28;45463;-71
2021/09/16 03:54:47;;;;;;;;;20.00;13.00;;;;;18.46;79.00;101473.31;5006756;28;45522;-71
2021/09/16 03:57:13;;;;;;;;;17.00;13.00;;;;;18.45;79.08;101482.25;4989991;28;45613;-71
2021/09/16 03:59:38;;;;;;;;;13.25;13.25;;;;;18.44;79.30;101479.69;4983792;28;46808;-71
2021/09/16 04:02:03;;;;;;;;;14.50;14.00;;;;;18.33;79.40;101466.22;4982908;28;45482;-71
2021/09/16 04:04:29;;;;;;;;;13.50;11.75;;;;;18.43;79.75;101484.16;4988455;28;45365;-71
2021/09/16 04:06:54;;;;;;;;;14.75;14.50;;;;;18.44;79.35;101485.03;4980835;28;50219;-71
2021/09/16 04:09:20;;;;;;;;;14.50;12.50;;;;;18.41;79.19;101486.06;4992980;28;46349;-71
2021/09/16 04:11:45;;;;;;;;;14.25;11.00;;;;;18.39;78.79;101492.44;4990521;28;45565;-71
2021/09/16 04:14:11;;;;;;;;;14.50;13.50;;;;;18.32;78.85;101481.31;4996987;28;45443;-71
2021/09/16 04:16:36;;;;;;;;;14.25;12.00;;;;;18.33;79.46;101490.19;5000382;28;45272;-71
2021/09/16 04:19:01;;;;;;;;;12.75;12.50;;;;;18.32;79.35;101489.28;4991127;28;46193;-71
2021/09/16 04:21:27;;;;;;;;;12.50;11.00;;;;;18.29;79.29;101491.31;4988133;28;45439;-71
2021/09/16 04:23:52;;;;;;;;;12.50;12.50;;;;;18.30;79.50;101493.03;4992539;28;45928;-70
2021/09/16 04:26:17;;;;;;;;;12.75;12.75;;;;;18.29;79.46;101496.63;4992653;28;45530;-71
2021/09/16 04:28:43;;;;;;;;;14.50;12.75;;;;;18.21;79.31;101492.63;4992922;28;46573;-71
2021/09/16 04:31:09;;;;;;;;;14.75;12.00;;;;;18.16;79.47;101480.56;4991418;28;45703;-71
2021/09/16 04:33:34;;;;;;;;;18.25;14.00;;;;;18.15;79.68;101479.72;4979773;28;45523;-71
2021/09/16 04:36:00;;;;;;;;;16.75;15.25;;;;;18.13;78.96;101480.78;4989083;28;45583;-71
2021/09/16 04:38:25;;;;;;;;;14.75;12.25;;;;;18.13;79.37;101488.75;4990719;28;45533;-71
2021/09/16 04:40:51;;;;;;;;;14.75;14.00;;;;;18.11;79.28;101498.63;4991322;28;45426;-70
2021/09/16 04:43:16;;;;;;;;;14.75;12.25;;;;;18.11;79.17;101491.50;4989283;28;45478;-71
2021/09/16 04:45:42;;;;;;;;;15.50;13.75;;;;;18.10;79.32;101497.78;4985657;28;45721;-70
2021/09/16 04:48:07;;;;;;;;;17.25;15.00;;;;;18.11;79.42;101491.50;4985243;28;46695;-72
2021/09/16 04:50:32;;;;;;;;;14.00;13.00;;;;;18.09;79.99;101489.91;4981517;28;45353;-71
2021/09/16 04:52:58;;;;;;;;;17.50;14.25;;;;;18.11;79.21;101493.31;4984756;28;45396;-74
2021/09/16 04:55:23;;;;;;;;;17.00;14.50;;;;;18.12;79.41;101492.38;4984830;28;45363;-72
2021/09/16 04:57:48;;;;;;;;;12.25;12.00;;;;;18.15;79.67;101501.00;4991854;28;46230;-72
2021/09/16 05:00:14;;;;;;;;;15.00;14.25;;;;;18.16;79.86;101499.19;4987817;28;45474;-72
2021/09/16 05:02:39;;;;;;;;;15.00;12.75;;;;;18.17;79.90;101504.44;4995124;28;45702;-72
2021/09/16 05:05:05;;;;;;;;;15.25;13.25;;;;;18.16;79.81;101507.19;4994823;28;45397;-72
2021/09/16 05:07:31;;;;;;;;;17.00;15.25;;;;;18.17;79.69;101508.91;4989037;28;45713;-71
2021/09/16 05:09:56;;;;;;;;;18.75;14.50;;;;;18.19;79.75;101514.97;4980700;28;45604;-72
2021/09/16 05:12:22;;;;;;;;;16.50;14.00;;;;;18.20;79.41;101509.56;4984149;28;45478;-72
2021/09/16 05:14:47;;;;;;;;;12.00;10.75;;;;;18.18;79.83;101503.47;5002370;28;45578;-72
2021/09/16 05:17:13;;;;;;;;;14.50;12.50;;;;;18.20;79.98;101509.56;4992076;28;46568;-72
2021/09/16 05:19:38;;;;;;;;;15.50;12.75;;;;;18.17;79.79;101500.94;4981997;28;45472;-72
2021/09/16 05:22:04;;;;;;;;;14.50;13.75;;;;;18.19;79.55;101510.50;4985249;28;45605;-72
2021/09/16 05:24:29;;;;;;;;;15.00;12.25;;;;;18.15;79.54;101513.47;4981003;28;45417;-72
2021/09/16 05:26:55;;;;;;;;;13.75;12.75;;;;;18.14;79.80;101515.25;4984044;28;46164;-72
2021/09/16 05:29:20;;;;;;;;;15.50;13.00;;;;;18.13;79.45;101513.56;4986058;28;45578;-72
2021/09/16 05:31:45;;;;;;;;;12.00;11.00;;;;;18.11;79.00;101509.25;4987164;28;45530;-72
2021/09/16 05:34:11;;;;;;;;;10.50;10.50;;;;;18.12;79.04;101516.31;4986270;28;45575;-71
2021/09/16 05:36:36;;;;;;;;;13.50;11.75;;;;;18.11;79.04;101519.91;4990065;28;48380;-73
2021/09/16 05:39:03;;;;;;;;;16.25;11.75;;;;;18.09;79.20;101517.34;4981985;28;45391;-72
2021/09/16 05:41:30;;;;;;;;;15.75;13.00;;;;;17.99;79.04;101505.56;4984837;28;45396;-72
2021/09/16 05:43:56;;;;;;;;;11.50;11.25;;;;;18.04;79.13;101514.13;4990801;28;45491;-72
2021/09/16 05:46:21;;;;;;;;;14.75;12.25;;;;;18.04;79.16;101522.09;4986741;28;45404;-72
2021/09/16 05:48:47;;;;;;;;;10.75;10.00;;;;;18.04;79.43;101519.44;4993390;28;46905;-72
2021/09/16 05:51:12;;;;;;;;;15.50;13.00;;;;;18.05;79.04;101531.78;4980174;28;45310;-72
2021/09/16 05:53:37;;;;;;;;;12.75;10.00;;;;;18.04;79.40;101530.09;4987369;28;45563;-72
2021/09/16 05:56:03;;;;;;;;;19.25;16.50;;;;;18.07;79.31;101529.06;4984629;28;45569;-72
2021/09/16 05:58:29;;;;;;;;;12.00;11.75;;;;;18.08;79.38;101531.59;4982697;28;45301;-73
2021/09/16 06:00:54;;;;;;;;;14.00;11.00;;;;;18.11;79.44;101530.56;4988751;28;46896;-72
2021/09/16 06:03:19;;;;;;;;;20.75;15.00;;;;;18.18;79.49;101542.53;4989264;28;45351;-72
2021/09/16 06:05:45;;;;;;;;;17.25;13.25;;;;;18.20;79.12;101533.50;4989389;28;45367;-72
2021/09/16 06:08:10;;;;;;;;;16.50;14.00;;;;;18.23;79.13;101540.44;4984368;28;45277;-72
2021/09/16 06:10:36;;;;;;;;;15.50;13.00;;;;;18.26;79.06;101541.09;4984804;28;45479;-72
2021/09/16 06:13:01;;;;;;;;;17.00;13.75;;;;;18.31;78.50;101550.59;4987575;28;45472;-73
2021/09/16 06:15:26;;;;;;;;;13.50;12.00;;;;;18.35;78.31;101555.63;4985989;28;45774;-72
2021/09/16 06:17:52;;;;;;;;;14.75;11.50;;;;;18.33;78.34;101544.25;4986139;28;45410;-71
2021/09/16 06:20:17;;;;;;;;;16.50;12.25;;;;;18.35;78.01;101549.47;4983050;28;45534;-72
2021/09/16 06:22:46;;;;;;;;;16.25;14.00;;;;;18.35;78.26;101552.97;4990390;28;45285;-71
2021/09/16 06:25:14;;;;;;;;;14.75;10.75;;;;;18.31;77.38;101554.13;4984439;28;46163;-72
2021/09/16 06:27:39;;;;;;;;;14.00;13.00;;;;;18.25;78.01;101558.00;4982860;28;45987;-72
2021/09/16 06:30:05;;;;;;;;;11.00;10.00;;;;;18.29;77.46;101556.03;4988594;28;45779;-72
2021/09/16 06:32:32;;;;;;;;;13.75;10.75;;;;;18.32;77.41;101569.13;4978336;28;45830;-73
2021/09/16 06:34:57;;;;;;;;;15.25;12.25;;;;;18.28;77.74;101564.97;4982881;28;47307;-72
2021/09/16 06:37:23;;;;;;;;;10.75;9.00;;;;;18.31;77.21;101572.75;4980891;28;45469;-72
2021/09/16 06:39:48;;;;;;;;;18.75;13.25;;;;;18.34;77.37;101577.88;4983424;28;45728;-72
2021/09/16 06:42:13;;;;;;;;;14.25;11.25;;;;;18.34;77.69;101569.91;5003731;28;45653;-72
2021/09/16 06:44:39;;;;;;;;;13.50;12.25;;;;;18.41;77.85;101584.53;4989871;28;45471;-72
2021/09/16 06:47:05;;;;;;;;;15.00;9.00;;;;;18.48;77.60;101587.69;4987416;28;45502;-72
2021/09/16 06:49:34;;;;;;;;;14.50;13.00;;;;;18.50;77.12;101586.63;4989420;28;45412;-72
2021/09/16 06:51:59;;;;;;;;;13.00;10.50;;;;;18.54;76.80;101581.13;4979951;28;45413;-72
2021/09/16 06:54:24;;;;;;;;;12.50;10.50;;;;;18.61;77.01;101585.09;5008462;28;47273;-72
2021/09/16 06:56:50;;;;;;;;;12.00;9.00;;;;;18.66;76.73;101588.31;4991917;28;45455;-72
2021/09/16 06:59:15;;;;;;;;;12.00;11.75;;;;;18.71;76.58;101589.78;4988434;28;45587;-72
2021/09/16 07:01:40;;;;;;;;;13.50;12.50;;;;;18.81;76.58;101583.88;4989745;28;45432;-72
2021/09/16 07:04:06;;;;;;;;;13.25;11.50;;;;;18.90;76.49;101580.63;4983845;28;46535;-72
2021/09/16 07:06:31;;;;;;;;;11.75;10.25;;;;;18.98;76.14;101576.47;4986536;28;47721;-72
2021/09/16 07:08:57;;;;;;;;;14.25;13.00;;;;;19.03;76.10;101573.53;4977251;28;45486;-72
2021/09/16 07:11:22;;;;;;;;;13.50;12.00;;;;;19.16;75.93;101578.91;4983340;28;45509;-72
2021/09/16 07:13:48;;;;;;;;;12.50;11.25;;;;;19.23;76.09;101583.75;4987558;28;46334;-72
2021/09/16 07:16:13;;;;;;;;;12.75;11.50;;;;;19.27;74.76;101590.59;4984138;28;45660;-72
2021/09/16 07:18:38;;;;;;;;;15.50;12.50;;;;;19.28;75.05;101578.97;4990806;28;45862;-72
2021/09/16 07:21:04;;;;;;;;;12.75;11.25;;;;;19.41;74.98;101581.66;4989360;28;45435;-72
2021/09/16 07:23:29;;;;;;;;;14.25;11.75;;;;;19.46;74.24;101582.19;4987069;28;45491;-71
2021/09/16 07:25:55;;;;;;;;;12.00;12.00;;;;;19.52;74.01;101579.16;4985544;28;45420;-72
2021/09/16 07:28:20;;;;;;;;;9.75;7.25;;;;;19.67;73.75;101579.09;4989959;28;45432;-72
2021/09/16 07:30:45;;;;;;;;;10.00;9.75;;;;;19.72;72.74;101579.63;4993281;28;45464;-71
2021/09/16 07:33:11;;;;;;;;;8.50;7.00;;;;;19.86;72.95;101590.22;4991262;28;46264;-71
2021/09/16 07:35:37;;;;;;;;;10.00;9.75;;;;;19.99;72.28;101593.75;4985433;28;45439;-72
2021/09/16 07:38:02;;;;;;;;;11.00;8.75;;;;;20.19;72.49;101591.50;4987472;28;45420;-71
2021/09/16 07:40:28;;;;;;;;;11.25;10.50;;;;;20.30;72.00;101591.59;4993461;28;45610;-72
2021/09/16 07:42:53;;;;;;;;;12.50;9.50;;;;;20.36;71.35;101588.53;4988545;28;46223;-72
2021/09/16 07:45:18;;;;;;;;;9.75;8.25;;;;;20.47;71.12;101594.00;4998032;28;45683;-72
2021/09/16 07:47:44;;;;;;;;;9.25;8.75;;;;;20.57;70.70;101589.72;4993589;28;45278;-72
2021/09/16 07:50:10;;;;;;;;;9.50;9.50;;;;;20.66;70.57;101590.00;4992567;28;45697;-72
2021/09/16 07:52:35;;;;;;;;;6.50;6.00;;;;;20.75;70.31;101597.34;4991718;28;46782;-72
2021/09/16 07:55:01;;;;;;;;;5.50;4.00;;;;;20.83;69.82;101600.34;4992319;28;45439;-72
2021/09/16 07:57:26;;;;;;;;;8.75;6.00;;;;;20.90;69.44;101598.06;4989649;28;45400;-72
2021/09/16 07:59:51;;;;;;;;;7.00;5.25;;;;;20.93;68.59;101590.66;4992902;28;45451;-72
2021/09/16 08:02:17;;;;;;;;;5.50;5.50;;;;;21.09;68.70;101604.63;4990618;28;45483;-72
2021/09/16 08:04:43;;;;;;;;;7.25;5.50;;;;;21.35;68.52;101615.22;4988550;28;46032;-72
2021/09/16 08:07:08;;;;;;;;;6.00;5.00;;;;;21.90;67.39;101611.06;4978426;28;45815;-72
2021/09/16 08:09:34;;;;;;;;;4.75;2.50;;;;;22.66;66.96;101604.25;4990469;28;47816;-72
2021/09/16 08:11:59;;;;;;;;;4.00;3.00;;;;;24.48;65.78;101610.44;4984731;28;45489;-72
2021/09/16 08:14:25;;;;;;;;;3.25;2.00;;;;;25.18;61.78;101606.88;4989892;28;45238;-72
2021/09/16 08:16:50;;;;;;;;;5.00;3.00;;;;;26.58;60.35;101597.34;4993388;28;45552;-72
2021/09/16 08:19:15;;;;;;;;;4.00;3.50;;;;;27.99;56.75;101607.56;4988397;28;45604;-72
2021/09/16 08:21:41;;;;;;;;;3.00;2.75;;;;;27.97;55.89;101604.13;4982322;28;45515;-72
2021/09/16 08:24:07;;;;;;;;;3.25;2.00;;;;;28.30;54.49;101600.66;4987332;28;45483;-72
2021/09/16 08:26:33;;;;;;;;;3.00;1.75;;;;;28.27;53.58;101605.50;4987661;28;45419;-72
2021/09/16 08:28:58;;;;;;;;;1.00;1.00;;;;;28.39;54.22;101598.84;4990324;28;45438;-72
2021/09/16 08:31:24;;;;;;;;;1.00;1.00;;;;;30.03;52.30;101605.44;4983044;28;47161;-71
2021/09/16 08:33:49;;;;;;;;;1.00;1.00;;;;;31.88;49.46;101606.53;4994971;28;45285;-72
2021/09/16 08:36:15;;;;;;;;;1.00;1.00;;;;;32.75;47.51;101605.06;4984800;28;45357;-71
2021/09/16 08:38:41;;;;;;;;;3.50;3.00;;;;;33.44;46.58;101600.00;4992641;28;45567;-72
2021/09/16 08:41:07;;;;;;;;;1.50;1.50;;;;;34.43;44.64;101613.56;4995844;28;45411;-72
2021/09/16 08:43:34;;;;;;;;;1.50;1.50;;;;;36.22;42.98;101619.41;4991830;28;45337;-72
2021/09/16 08:46:01;;;;;;;;;1.75;1.00;;;;;38.47;40.79;101617.09;4994122;28;45454;-72
2021/09/16 08:48:27;;;;;;;;;1.25;1.25;;;;;40.18;38.61;101623.84;4995305;28;45671;-72
2021/09/16 08:50:53;;;;;;;;;2.00;1.00;;;;;41.59;34.50;101615.88;4992459;28;45310;-72
2021/09/16 08:53:24;;;;;;;;;2.00;1.00;;;;;42.65;32.98;101617.69;4994011;28;45706;-72
2021/09/16 08:55:51;;;;;;;;;1.25;0.00;;;;;43.41;31.52;101629.59;4986757;28;45327;-73
2021/09/16 08:58:19;;;;;;;;;0.00;0.00;;;;;44.13;31.10;101627.34;4992585;28;45523;-72
2021/09/16 09:00:45;;;;;;;;;0.00;0.00;;;;;45.11;29.73;101624.69;4993835;28;46390;-72
2021/09/16 09:03:11;;;;;;;;;1.00;0.00;;;;;46.19;28.60;101629.06;4992241;28;45974;-72
2021/09/16 09:05:39;;;;;;;;;1.50;1.25;;;;;47.08;27.90;101623.63;4992187;28;45538;-72
2021/09/16 09:08:05;;;;;;;;;0.00;0.00;;;;;47.86;26.79;101636.59;4995800;28;45225;-72
2021/09/16 09:10:35;;;;;;;;;2.00;0.00;;;;;48.35;25.38;101644.75;4991233;28;45379;-72
2021/09/16 09:13:02;;;;;;;;;0.50;0.50;;;;;48.67;23.16;101645.16;4993380;28;45605;-72
2021/09/16 09:15:27;;;;;;;;;0.00;0.00;;;;;48.73;23.75;101647.59;4991902;28;45517;-72
2021/09/16 09:18:02;;;;;;;;;1.25;1.25;;;;;48.80;22.65;101645.25;4984750;28;45460;-72
2021/09/16 09:20:27;;;;;;;;;1.00;0.00;;;;;49.19;22.36;101652.50;4984639;28;46637;-72
2021/09/16 09:22:53;;;;;;;;;1.00;0.00;;;;;49.67;22.76;101655.03;4985903;28;45499;-72
2021/09/16 09:25:19;;;;;;;;;0.00;0.00;;;;;49.97;21.33;101658.44;5009538;28;45534;-72
2021/09/16 09:27:53;;;;;;;;;0.75;0.75;;;;;50.04;21.04;101661.63;4985645;28;45510;-72
2021/09/16 09:30:20;;;;;;;;;1.00;1.00;;;;;49.85;21.19;101651.34;4981746;28;47314;-72
2021/09/16 09:33:01;;;;;;;;;0.00;0.00;;;;;49.57;20.75;101658.00;4988136;28;45732;-72
2021/09/16 09:35:42;;;;;;;;;0.50;0.50;;;;;48.52;21.29;101652.59;4982066;28;45538;-72
2021/09/16 09:38:23;;;;;;;;;2.50;1.00;;;;;47.23;21.54;101645.78;4986483;28;45818;-72
2021/09/16 09:40:55;;;;;;;;;1.25;0.75;;;;;45.83;22.19;101647.75;4985096;28;45573;-72
2021/09/16 09:43:33;;;;;;;;;0.50;0.50;;;;;44.48;23.21;101648.88;4992112;28;45467;-72
2021/09/16 09:46:12;;;;;;;;;1.00;1.00;;;;;43.37;22.87;101641.41;4984903;28;45588;-72
2021/09/16 09:48:56;;;;;;;;;1.25;0.25;;;;;42.47;24.31;101644.56;4985392;28;45491;-72
2021/09/16 09:51:42;;;;;;;;;0.75;0.00;;;;;41.43;25.03;101653.44;4994605;28;45532;-72
2021/09/16 09:54:32;;;;;;;;;0.00;0.00;;;;;39.82;25.20;101630.41;4985267;28;45844;-72
2021/09/16 09:57:04;;;;;;;;;2.00;1.00;;;;;39.04;25.90;101653.38;4987979;28;45793;-72
2021/09/16 09:59:58;;;;;;;;;2.25;1.00;;;;;38.62;27.27;101645.00;4983576;28;45302;-72
2021/09/16 10:02:43;;;;;;;;;0.00;0.00;;;;;38.23;27.85;101646.28;4980634;28;46449;-72
2021/09/16 10:05:29;;;;;;;;;0.00;0.00;;;;;37.98;27.85;101649.91;4986646;28;45515;-72
2021/09/16 10:08:15;;;;;;;;;0.50;0.50;;;;;37.96;27.67;101642.97;4990945;28;45428;-72
2021/09/16 10:10:48;;;;;;;;;2.00;1.25;;;;;38.12;27.76;101637.75;4990802;28;45483;-72
2021/09/16 10:13:20;;;;;;;;;1.25;1.25;;;;;38.48;27.58;101647.09;4990866;28;45522;-72
2021/09/16 10:15:50;;;;;;;;;0.75;0.75;;;;;38.63;27.42;101642.06;4996460;28;45388;-72
2021/09/16 10:18:16;;;;;;;;;0.75;0.75;;;;;38.52;26.87;101640.06;4980185;28;45295;-72
2021/09/16 10:20:42;;;;;;;;;1.00;0.00;;;;;38.55;27.28;101636.03;4980645;28;45544;-72
2021/09/16 10:23:09;;;;;;;;;1.00;1.00;;;;;38.64;27.04;101640.97;4987316;28;46408;-72
2021/09/16 10:25:44;;;;;;;;;2.00;0.00;;;;;38.57;26.59;101633.88;4987094;28;45251;-72
2021/09/16 10:28:10;;;;;;;;;1.00;0.00;;;;;38.24;27.57;101635.06;4980078;28;45489;-72
2021/09/16 10:30:46;;;;;;;;;1.00;1.00;;;;;37.80;27.08;101626.00;4994678;28;45462;-72
2021/09/16 10:33:13;;;;;;;;;1.25;1.25;;;;;37.06;27.59;101623.97;4991811;28;48347;-72
2021/09/16 10:35:41;;;;;;;;;2.25;2.00;;;;;36.32;28.08;101625.28;4990921;28;45404;-72
2021/09/16 10:38:18;;;;;;;;;1.00;1.00;;;;;35.50;28.85;101621.97;4990625;28;45455;-72
2021/09/16 10:40:44;;;;;;;;;0.75;0.75;;;;;35.06;30.36;101616.19;4990548;28;45508;-72
2021/09/16 10:43:18;;;;;;;;;1.00;0.75;;;;;34.65;30.19;101620.63;4990262;28;46548;-72
2021/09/16 10:45:43;;;;;;;;;2.50;1.75;;;;;34.39;30.56;101613.09;4979482;28;46479;-72
2021/09/16 10:48:15;;;;;;;;;1.50;1.50;;;;;34.30;30.82;101618.94;4991858;28;45939;-72
2021/09/16 10:50:42;;;;;;;;;1.00;1.00;;;;;34.03;30.58;101604.28;4990998;28;45488;-72
2021/09/16 10:53:31;;;;;;;;;1.00;1.00;;;;;33.86;30.89;101614.63;4990362;28;45451;-72
2021/09/16 10:55:56;;;;;;;;;2.25;1.50;;;;;33.66;31.74;101611.72;4987718;28;45509;-72
2021/09/16 10:58:27;;;;;;;;;2.50;2.50;;;;;33.28;31.57;101619.31;4982026;28;45534;-72
2021/09/16 11:00:53;;;;;;;;;3.00;2.00;;;;;33.01;31.95;101608.13;4992737;28;45419;-72
2021/09/16 11:03:18;;;;;;;;;2.75;2.00;;;;;32.92;33.77;101606.56;4992288;28;46019;-72
2021/09/16 11:05:47;;;;;;;;;4.00;2.00;;;;;32.93;32.34;101613.69;4990253;28;45353;-72
2021/09/16 11:08:17;;;;;;;;;2.75;2.00;;;;;32.87;32.72;101606.25;4990606;28;45489;-72
2021/09/16 11:10:43;;;;;;;;;2.50;2.50;;;;;32.62;32.98;101605.75;4990133;28;45475;-72
2021/09/16 11:13:38;;;;;;;;;3.25;3.25;;;;;32.31;32.89;101616.78;4990556;28;46087;-72